Time;durP1;ratioP1;P1;durP2;ratioP2;P2;SDS_P1;SDS_P2;PMS_P1;PMS_P2;Temp;Humidity;BMP_temperature;BMP_pressure;BME280_temperature;BME280_humidity;BME280_pressure;Samples;Min_cycle;Max_cycle;Signal;HPM_P1;HPM_P2
2021/03/07 00:00:19;;;;;;;2.00;0.93;;;;;;;;;;4957554;28;20062;-76
2021/03/07 00:02:44;;;;;;;1.52;0.70;;;;;;;;;;4976711;28;20030;-76
2021/03/07 00:05:10;;;;;;;2.27;0.97;;;;;;;;;;4993055;28;20138;-76
2021/03/07 00:07:36;;;;;;;1.85;0.80;;;;;;;;;;4978696;28;20034;-76
2021/03/07 00:10:03;;;;;;;2.30;0.90;;;;;;;;;;4979837;28;20084;-76
2021/03/07 00:12:29;;;;;;;2.28;0.98;;;;;;;;;;4979972;28;20104;-76
2021/03/07 00:14:54;;;;;;;1.43;0.80;;;;;;;;;;4976651;28;20548;-76
2021/03/07 00:17:19;;;;;;;1.90;0.73;;;;;;;;;;4944315;28;20062;-76
2021/03/07 00:19:45;;;;;;;2.00;0.80;;;;;;;;;;4962939;28;20108;-76
2021/03/07 00:22:10;;;;;;;1.97;0.90;;;;;;;;;;5003156;28;20117;-76
2021/03/07 00:24:35;;;;;;;1.43;0.80;;;;;;;;;;4944427;28;20040;-76
2021/03/07 00:27:01;;;;;;;2.40;0.80;;;;;;;;;;4960572;28;20062;-76
2021/03/07 00:29:27;;;;;;;1.67;0.90;;;;;;;;;;4976445;28;20541;-76
2021/03/07 00:31:52;;;;;;;2.75;0.95;;;;;;;;;;4998515;28;20054;-76
2021/03/07 00:34:18;;;;;;;1.60;0.97;;;;;;;;;;4960658;28;20068;-76
2021/03/07 00:36:43;;;;;;;1.63;0.83;;;;;;;;;;4961093;28;20432;-76
2021/03/07 00:39:08;;;;;;;2.60;0.90;;;;;;;;;;5012345;28;20433;-76
2021/03/07 00:41:34;;;;;;;2.33;0.90;;;;;;;;;;5011965;28;20120;-76
2021/03/07 00:44:00;;;;;;;1.92;0.73;;;;;;;;;;4995688;28;20422;-76
2021/03/07 00:46:25;;;;;;;2.13;1.00;;;;;;;;;;4995649;28;20073;-76
2021/03/07 00:48:50;;;;;;;1.53;0.73;;;;;;;;;;5012046;28;20029;-76
2021/03/07 00:51:16;;;;;;;2.33;1.00;;;;;;;;;;5011573;28;20441;-76
2021/03/07 00:53:41;;;;;;;2.77;0.93;;;;;;;;;;5011983;28;20038;-76
2021/03/07 00:56:06;;;;;;;1.63;0.70;;;;;;;;;;5006100;28;20121;-76
2021/03/07 00:58:32;;;;;;;2.37;0.93;;;;;;;;;;4960105;28;20031;-76
2021/03/07 01:00:57;;;;;;;1.67;0.67;;;;;;;;;;4968313;28;20070;-76
2021/03/07 01:03:22;;;;;;;3.03;0.87;;;;;;;;;;4979542;28;20061;-76
2021/03/07 01:05:48;;;;;;;2.43;0.90;;;;;;;;;;4963184;28;20057;-76
2021/03/07 01:08:13;;;;;;;2.33;0.90;;;;;;;;;;4979289;28;20061;-76
2021/03/07 01:10:40;;;;;;;1.50;0.77;;;;;;;;;;4959698;28;20108;-76
2021/03/07 01:13:05;;;;;;;;;;;;;;;;;;4960846;28;20034;-76
2021/03/07 01:15:31;;;;;;;1.33;0.63;;;;;;;;;;4959909;28;19914;-76
2021/03/07 01:17:56;;;;;;;3.10;0.90;;;;;;;;;;4959860;28;20049;-76
2021/03/07 01:20:22;;;;;;;2.33;0.80;;;;;;;;;;4947426;28;20038;-76
2021/03/07 01:22:47;;;;;;;2.43;0.93;;;;;;;;;;5011802;28;20037;-76
2021/03/07 01:25:12;;;;;;;2.10;1.00;;;;;;;;;;4979338;28;20033;-76
2021/03/07 01:27:38;;;;;;;2.07;0.87;;;;;;;;;;5012052;28;20057;-76
2021/03/07 01:30:07;;;;;;;1.87;0.80;;;;;;;;;;4998756;28;20057;-76
2021/03/07 01:32:33;;;;;;;1.92;0.73;;;;;;;;;;4964104;28;20038;-76
2021/03/07 01:34:58;;;;;;;3.57;0.90;;;;;;;;;;4972303;28;20093;-76
2021/03/07 01:37:23;;;;;;;1.80;0.70;;;;;;;;;;4966667;28;20041;-76
2021/03/07 01:39:49;;;;;;;1.83;0.70;;;;;;;;;;4966381;28;20073;-76
2021/03/07 01:42:14;;;;;;;1.63;0.90;;;;;;;;;;4963038;28;20081;-76
2021/03/07 01:44:40;;;;;;;1.60;0.83;;;;;;;;;;4947243;28;20037;-76
2021/03/07 01:47:05;;;;;;;1.63;0.90;;;;;;;;;;4963264;28;20445;-76
2021/03/07 01:49:30;;;;;;;1.30;0.67;;;;;;;;;;4974676;28;20049;-76
2021/03/07 01:51:56;;;;;;;2.43;0.90;;;;;;;;;;4982402;28;20477;-76
2021/03/07 01:54:21;;;;;;;2.23;0.80;;;;;;;;;;4982262;28;20053;-76
2021/03/07 01:56:46;;;;;;;2.00;0.80;;;;;;;;;;4982685;28;20029;-76
2021/03/07 01:59:12;;;;;;;1.73;0.77;;;;;;;;;;4987682;28;20587;-76
2021/03/07 02:01:38;;;;;;;2.83;0.80;;;;;;;;;;4955789;28;20405;-76
2021/03/07 02:04:03;;;;;;;1.30;0.60;;;;;;;;;;4969117;28;20117;-76
2021/03/07 02:06:29;;;;;;;1.60;0.73;;;;;;;;;;4978894;28;20034;-76
2021/03/07 02:08:54;;;;;;;1.77;0.90;;;;;;;;;;4979112;28;20077;-76
2021/03/07 02:11:19;;;;;;;2.10;0.90;;;;;;;;;;4962596;28;20069;-76
2021/03/07 02:13:45;;;;;;;1.87;0.83;;;;;;;;;;4978801;28;20062;-76
2021/03/07 02:16:21;;;;;;;2.40;0.80;;;;;;;;;;4962423;28;20150;-76
2021/03/07 02:18:48;;;;;;;1.60;0.80;;;;;;;;;;4982004;28;20034;-76
2021/03/07 02:21:27;;;;;;;2.08;0.80;;;;;;;;;;4965923;28;20041;-77
2021/03/07 02:24:06;;;;;;;2.20;0.70;;;;;;;;;;4982388;28;20045;-76
2021/03/07 02:26:32;;;;;;;1.90;0.88;;;;;;;;;;5030122;28;20033;-76
2021/03/07 02:28:57;;;;;;;1.90;0.63;;;;;;;;;;4998064;28;20041;-76
2021/03/07 02:31:24;;;;;;;1.93;0.70;;;;;;;;;;4996445;28;20400;-76
2021/03/07 02:33:57;;;;;;;;;;;;;;;;;;4947393;28;20033;-76
2021/03/07 02:36:26;;;;;;;1.80;0.70;;;;;;;;;;5010479;28;20007;-76
2021/03/07 02:38:51;;;;;;;3.05;1.10;;;;;;;;;;4997064;28;20053;-76
2021/03/07 02:41:17;;;;;;;1.50;0.80;;;;;;;;;;4997355;28;20484;-76
2021/03/07 02:43:44;;;;;;;1.63;0.77;;;;;;;;;;5013987;28;20556;-76
2021/03/07 02:46:12;;;;;;;1.88;0.65;;;;;;;;;;4996967;28;20416;-76
2021/03/07 02:48:37;;;;;;;1.30;0.70;;;;;;;;;;5030302;28;20041;-76
2021/03/07 02:51:03;;;;;;;2.20;0.60;;;;;;;;;;4997136;28;20026;-76
2021/03/07 02:53:29;;;;;;;1.60;0.70;;;;;;;;;;5013989;28;20038;-76
2021/03/07 02:56:07;;;;;;;1.58;0.80;;;;;;;;;;4981103;28;20041;-76
2021/03/07 02:58:32;;;;;;;1.80;0.95;;;;;;;;;;4997823;28;20045;-76
2021/03/07 03:00:59;;;;;;;1.47;0.80;;;;;;;;;;4981133;28;20033;-76
2021/03/07 03:03:29;;;;;;;;;;;;;;;;;;5014094;28;20115;-76
2021/03/07 03:05:55;;;;;;;1.75;0.77;;;;;;;;;;4983165;28;19976;-76
2021/03/07 03:08:20;;;;;;;2.53;0.80;;;;;;;;;;4993917;28;20516;-76
2021/03/07 03:10:45;;;;;;;1.60;0.80;;;;;;;;;;4961767;28;20489;-76
2021/03/07 03:13:11;;;;;;;1.27;0.70;;;;;;;;;;4945621;28;20120;-76
2021/03/07 03:15:36;;;;;;;1.70;0.87;;;;;;;;;;4953718;28;20038;-76
2021/03/07 03:18:02;;;;;;;1.43;0.80;;;;;;;;;;4961251;28;20041;-76
2021/03/07 03:20:27;;;;;;;1.13;0.63;;;;;;;;;;4964561;28;20025;-76
2021/03/07 03:22:52;;;;;;;1.33;0.70;;;;;;;;;;4964764;28;20109;-76
2021/03/07 03:25:18;;;;;;;1.93;0.70;;;;;;;;;;4961284;28;20450;-76
2021/03/07 03:27:43;;;;;;;2.00;0.93;;;;;;;;;;4945329;28;20530;-76
2021/03/07 03:30:14;;;;;;;1.90;0.80;;;;;;;;;;4975330;28;20092;-76
2021/03/07 03:32:39;;;;;;;2.15;0.80;;;;;;;;;;4977301;28;20030;-76
2021/03/07 03:35:07;;;;;;;1.57;0.70;;;;;;;;;;4961160;28;20042;-76
2021/03/07 03:37:33;;;;;;;1.65;0.70;;;;;;;;;;4977162;28;20130;-76
2021/03/07 03:39:58;;;;;;;2.70;0.80;;;;;;;;;;4977111;28;20113;-76
2021/03/07 03:42:23;;;;;;;2.13;0.73;;;;;;;;;;4976900;28;20681;-76
2021/03/07 03:44:49;;;;;;;2.47;0.80;;;;;;;;;;4964305;28;20116;-76
2021/03/07 03:47:15;;;;;;;1.50;0.70;;;;;;;;;;4964232;28;20124;-76
2021/03/07 03:49:53;;;;;;;1.70;0.70;;;;;;;;;;4980294;28;20026;-76
2021/03/07 03:52:20;;;;;;;1.50;0.70;;;;;;;;;;4959960;28;20080;-76
2021/03/07 03:54:49;;;;;;;2.33;1.00;;;;;;;;;;4948066;28;20034;-76
2021/03/07 03:57:16;;;;;;;3.35;0.88;;;;;;;;;;5012472;28;20034;-76
2021/03/07 03:59:41;;;;;;;1.83;0.93;;;;;;;;;;5012413;28;20038;-76
2021/03/07 04:02:07;;;;;;;2.13;0.73;;;;;;;;;;5010260;28;20124;-76
2021/03/07 04:04:32;;;;;;;1.13;0.70;;;;;;;;;;4962203;28;20065;-76
2021/03/07 04:06:57;;;;;;;2.00;0.77;;;;;;;;;;4995893;28;20034;-76
2021/03/07 04:09:22;;;;;;;2.57;0.93;;;;;;;;;;4961740;28;20066;-76
2021/03/07 04:11:48;;;;;;;1.80;0.70;;;;;;;;;;4972248;28;20108;-76
2021/03/07 04:14:13;;;;;;;1.93;0.77;;;;;;;;;;4976408;28;20097;-76
2021/03/07 04:16:39;;;;;;;2.37;1.10;;;;;;;;;;4960444;28;20124;-76
2021/03/07 04:19:04;;;;;;;2.23;0.83;;;;;;;;;;4976828;28;20038;-76
2021/03/07 04:21:30;;;;;;;2.83;1.00;;;;;;;;;;4960315;28;20038;-76
2021/03/07 04:23:55;;;;;;;2.47;0.87;;;;;;;;;;4978974;28;20121;-76
2021/03/07 04:26:20;;;;;;;1.97;0.87;;;;;;;;;;4945009;28;20121;-76
2021/03/07 04:28:46;;;;;;;2.07;1.00;;;;;;;;;;4960564;28;20089;-76
2021/03/07 04:31:11;;;;;;;1.57;0.80;;;;;;;;;;4963741;28;20055;-76
2021/03/07 04:33:37;;;;;;;1.80;0.90;;;;;;;;;;4963510;28;20112;-76
2021/03/07 04:36:02;;;;;;;2.50;0.80;;;;;;;;;;4959885;28;20080;-76
2021/03/07 04:38:28;;;;;;;1.33;0.70;;;;;;;;;;4971089;28;20034;-76
2021/03/07 04:40:53;;;;;;;1.60;0.80;;;;;;;;;;4976379;28;20185;-76
2021/03/07 04:43:19;;;;;;;2.07;0.97;;;;;;;;;;4960301;28;20122;-76
2021/03/07 04:45:44;;;;;;;1.70;0.83;;;;;;;;;;4963190;28;20038;-75
2021/03/07 04:48:09;;;;;;;1.57;0.87;;;;;;;;;;4979388;28;20046;-76
2021/03/07 04:50:35;;;;;;;1.43;0.73;;;;;;;;;;4959781;28;20030;-76
2021/03/07 04:53:00;;;;;;;2.33;0.90;;;;;;;;;;4944111;28;20072;-76
2021/03/07 04:55:25;;;;;;;3.13;0.97;;;;;;;;;;4978944;28;20126;-76
2021/03/07 04:57:51;;;;;;;1.20;0.70;;;;;;;;;;4979493;28;20068;-76
2021/03/07 05:00:17;;;;;;;1.40;0.80;;;;;;;;;;4963013;28;20061;-76
2021/03/07 05:02:42;;;;;;;2.15;0.90;;;;;;;;;;4954950;28;20405;-76
2021/03/07 05:05:08;;;;;;;1.60;0.83;;;;;;;;;;4952095;28;20116;-75
2021/03/07 05:07:33;;;;;;;1.83;0.83;;;;;;;;;;4967020;28;20385;-75
2021/03/07 05:09:59;;;;;;;2.30;0.90;;;;;;;;;;4966957;28;20199;-76
2021/03/07 05:12:25;;;;;;;2.50;0.90;;;;;;;;;;4982898;28;20065;-76
2021/03/07 05:14:50;;;;;;;2.15;1.00;;;;;;;;;;4982653;28;20030;-75
2021/03/07 05:17:16;;;;;;;2.13;1.00;;;;;;;;;;5015280;28;20089;-75
2021/03/07 05:19:41;;;;;;;1.63;0.80;;;;;;;;;;5031794;28;20037;-75
2021/03/07 05:22:06;;;;;;;2.17;0.80;;;;;;;;;;4999169;28;20117;-76
2021/03/07 05:24:32;;;;;;;2.37;1.00;;;;;;;;;;5015304;28;20053;-76
2021/03/07 05:27:05;;;;;;;2.30;0.90;;;;;;;;;;4999253;28;20503;-76
2021/03/07 05:29:32;;;;;;;1.73;0.75;;;;;;;;;;4998836;28;20066;-76
2021/03/07 05:31:57;;;;;;;;;;;;;;;;;;4999086;28;20033;-76
2021/03/07 05:34:22;;;;;;;1.60;0.90;;;;;;;;;;5014406;28;19913;-76
2021/03/07 05:36:48;;;;;;;1.40;0.70;;;;;;;;;;4982278;28;20571;-76
2021/03/07 05:39:13;;;;;;;2.30;0.90;;;;;;;;;;4992610;28;20417;-76
2021/03/07 05:41:38;;;;;;;2.37;1.20;;;;;;;;;;4946989;28;20494;-76
2021/03/07 05:44:04;;;;;;;2.00;1.00;;;;;;;;;;4947502;28;20061;-76
2021/03/07 05:46:29;;;;;;;2.07;0.80;;;;;;;;;;4963139;28;20065;-76
2021/03/07 05:48:54;;;;;;;2.10;0.90;;;;;;;;;;4954288;28;20038;-76
2021/03/07 05:51:20;;;;;;;2.23;0.97;;;;;;;;;;4979046;28;20088;-76
2021/03/07 05:53:48;;;;;;;2.63;1.00;;;;;;;;;;4967956;28;20108;-76
2021/03/07 05:56:14;;;;;;;1.80;0.80;;;;;;;;;;4966345;28;20030;-76
2021/03/07 05:58:39;;;;;;;2.23;0.90;;;;;;;;;;4998376;28;20068;-75
2021/03/07 06:01:04;;;;;;;2.40;1.00;;;;;;;;;;4988225;28;20049;-75
2021/03/07 06:03:30;;;;;;;1.83;0.97;;;;;;;;;;4970896;28;20034;-76
2021/03/07 06:05:56;;;;;;;1.92;0.90;;;;;;;;;;4981533;28;20108;-76
2021/03/07 06:08:22;;;;;;;1.73;1.00;;;;;;;;;;4998112;28;20038;-76
2021/03/07 06:10:47;;;;;;;2.10;1.10;;;;;;;;;;5011253;28;20040;-76
2021/03/07 06:13:13;;;;;;;2.27;1.00;;;;;;;;;;4962285;28;20041;-76
2021/03/07 06:15:38;;;;;;;1.70;0.80;;;;;;;;;;4962276;28;20457;-76
2021/03/07 06:18:19;;;;;;;2.23;0.80;;;;;;;;;;4978632;28;20035;-76
2021/03/07 06:20:49;;;;;;;2.53;1.08;;;;;;;;;;4981655;28;20405;-77
2021/03/07 06:23:15;;;;;;;2.58;1.10;;;;;;;;;;4984600;28;20045;-76
2021/03/07 06:25:58;;;;;;;2.83;1.00;;;;;;;;;;4957141;28;20117;-75
2021/03/07 06:28:25;;;;;;;3.30;1.10;;;;;;;;;;4997742;28;20477;-77
2021/03/07 06:30:54;;;;;;;3.00;1.20;;;;;;;;;;4998035;28;20115;-76
2021/03/07 06:33:37;;;;;;;3.75;1.20;;;;;;;;;;5014203;28;20033;-76
2021/03/07 06:36:19;;;;;;;1.85;0.85;;;;;;;;;;4994517;28;20053;-76
2021/03/07 06:38:46;;;;;;;2.42;1.10;;;;;;;;;;4965218;28;20034;-76
2021/03/07 06:41:18;;;;;;;2.67;1.05;;;;;;;;;;4965195;28;20075;-76
2021/03/07 06:43:43;;;;;;;2.45;1.02;;;;;;;;;;4947319;28;20035;-76
2021/03/07 06:46:28;;;;;;;3.30;1.10;;;;;;;;;;4978123;28;20037;-76
2021/03/07 06:48:53;;;;;;;3.33;1.10;;;;;;;;;;4974438;28;20505;-77
2021/03/07 06:51:35;;;;;;;2.37;1.20;;;;;;;;;;4946452;28;20072;-77
2021/03/07 06:54:19;;;;;;;2.75;1.00;;;;;;;;;;4967340;28;20041;-77
2021/03/07 06:56:47;;;;;;;2.45;1.00;;;;;;;;;;5013364;28;20045;-76
2021/03/07 06:59:20;;;;;;;2.13;0.90;;;;;;;;;;5005760;28;20045;-76
2021/03/07 07:01:49;;;;;;;2.10;0.85;;;;;;;;;;4960358;28;20038;-76
2021/03/07 07:04:15;;;;;;;3.03;1.10;;;;;;;;;;4978398;28;20508;-76
2021/03/07 07:06:41;;;;;;;1.30;0.90;;;;;;;;;;4961736;28;20035;-76
2021/03/07 07:09:08;;;;;;;1.95;1.00;;;;;;;;;;4945613;28;20030;-76
2021/03/07 07:11:43;;;;;;;2.53;1.00;;;;;;;;;;4957638;28;20034;-76
2021/03/07 07:14:09;;;;;;;2.22;0.98;;;;;;;;;;4977604;28;20033;-76
2021/03/07 07:16:34;;;;;;;2.17;0.93;;;;;;;;;;4980976;28;20022;-76
2021/03/07 07:19:00;;;;;;;2.27;1.07;;;;;;;;;;4961238;28;20544;-75
2021/03/07 07:21:25;;;;;;;3.27;1.13;;;;;;;;;;4945592;28;20054;-76
2021/03/07 07:23:51;;;;;;;2.07;1.00;;;;;;;;;;4961219;28;20129;-76
2021/03/07 07:26:16;;;;;;;2.07;0.97;;;;;;;;;;4952557;28;20039;-75
2021/03/07 07:28:42;;;;;;;2.97;1.17;;;;;;;;;;5012017;28;20515;-76
2021/03/07 07:31:16;;;;;;;2.53;1.10;;;;;;;;;;4964396;28;20096;-76
2021/03/07 07:33:53;;;;;;;2.45;1.02;;;;;;;;;;5013609;28;20038;-76
2021/03/07 07:36:24;;;;;;;2.67;1.20;;;;;;;;;;5011937;28;20030;-76
2021/03/07 07:38:50;;;;;;;1.27;0.90;;;;;;;;;;4993154;28;20053;-75
2021/03/07 07:41:31;;;;;;;3.63;1.23;;;;;;;;;;4962513;28;20044;-76
2021/03/07 07:43:57;;;;;;;1.80;0.90;;;;;;;;;;5004243;28;20126;-76
2021/03/07 07:46:23;;;;;;;1.75;1.10;;;;;;;;;;4976133;28;20033;-76
2021/03/07 07:48:48;;;;;;;2.60;1.10;;;;;;;;;;4982439;28;20125;-76
2021/03/07 07:51:32;;;;;;;2.27;1.17;;;;;;;;;;4944839;28;20033;-76
2021/03/07 07:53:58;;;;;;;2.40;1.20;;;;;;;;;;4976560;28;20046;-77
2021/03/07 07:56:42;;;;;;;2.40;1.20;;;;;;;;;;4956488;28;20030;-76
2021/03/07 07:59:09;;;;;;;2.83;1.15;;;;;;;;;;4995388;28;20037;-76
2021/03/07 08:01:55;;;;;;;1.95;1.00;;;;;;;;;;4978015;28;20037;-76
2021/03/07 08:04:26;;;;;;;2.72;1.20;;;;;;;;;;4992962;28;20042;-76
2021/03/07 08:06:52;;;;;;;2.72;1.10;;;;;;;;;;4997299;28;20056;-76
2021/03/07 08:09:40;;;;;;;2.67;1.10;;;;;;;;;;5012554;28;20513;-76
2021/03/07 08:12:42;;;;;;;3.92;1.23;;;;;;;;;;4993163;28;20481;-75
2021/03/07 08:15:26;;;;;;;2.95;1.20;;;;;;;;;;4995396;28;20419;-76
2021/03/07 08:17:54;;;;;;;2.42;1.10;;;;;;;;;;4996078;28;20457;-76
2021/03/07 08:20:38;;;;;;;2.95;1.10;;;;;;;;;;4980424;28;20038;-76
2021/03/07 08:23:12;;;;;;;2.45;1.20;;;;;;;;;;4988104;28;20515;-76
2021/03/07 08:25:50;;;;;;;2.53;1.30;;;;;;;;;;5017274;28;20049;-77
2021/03/07 08:28:24;;;;;;;3.03;1.20;;;;;;;;;;4976331;28;20069;-76
2021/03/07 08:30:50;;;;;;;3.20;1.42;;;;;;;;;;4979012;28;20030;-76
2021/03/07 08:33:28;;;;;;;2.43;1.30;;;;;;;;;;4999006;28;20130;-76
2021/03/07 08:36:14;;;;;;;2.17;1.23;;;;;;;;;;4958965;28;20034;-76
2021/03/07 08:38:48;;;;;;;2.28;1.08;;;;;;;;;;4981067;28;20057;-76
2021/03/07 08:41:15;;;;;;;3.33;1.20;;;;;;;;;;5011693;28;20533;-76
2021/03/07 08:43:40;;;;;;;2.67;1.30;;;;;;;;;;4988673;28;20065;-76
2021/03/07 08:46:10;;;;;;;2.50;1.00;;;;;;;;;;4993601;28;20378;-76
2021/03/07 08:48:37;;;;;;;2.40;1.20;;;;;;;;;;4978223;28;20034;-76
2021/03/07 08:51:02;;;;;;;;;;;;;;;;;;4995667;28;20078;-75
2021/03/07 08:53:30;;;;;;;4.13;1.30;;;;;;;;;;5011823;28;19956;-76
2021/03/07 08:55:55;;;;;;;2.15;1.10;;;;;;;;;;5002589;28;20398;-76
2021/03/07 08:58:20;;;;;;;2.23;1.03;;;;;;;;;;4960003;28;20169;-76
2021/03/07 09:00:47;;;;;;;3.33;1.10;;;;;;;;;;4977942;28;20092;-77
2021/03/07 09:03:13;;;;;;;2.63;1.25;;;;;;;;;;4950121;28;20045;-77
2021/03/07 09:05:38;;;;;;;3.35;1.30;;;;;;;;;;4949504;28;20030;-77
2021/03/07 09:08:04;;;;;;;2.70;1.20;;;;;;;;;;4952916;28;20049;-76
2021/03/07 09:10:40;;;;;;;2.70;1.17;;;;;;;;;;4976368;28;20485;-76
2021/03/07 09:13:12;;;;;;;2.45;1.17;;;;;;;;;;5011678;28;20037;-76
2021/03/07 09:15:39;;;;;;;2.83;1.20;;;;;;;;;;5011672;28;20109;-77
2021/03/07 09:18:05;;;;;;;3.70;1.15;;;;;;;;;;5001358;28;20161;-77
2021/03/07 09:20:44;;;;;;;2.40;1.07;;;;;;;;;;4977211;23;20122;-79
2021/03/07 09:23:32;;;;;;;3.45;1.20;;;;;;;;;;5037118;28;20132;-79
2021/03/07 09:26:00;;;;;;;3.10;1.27;;;;;;;;;;5053529;28;20487;-79
2021/03/07 09:28:50;;;;;;;2.63;1.27;;;;;;;;;;5011691;28;20037;-80
2021/03/07 09:31:34;;;;;;;3.40;1.40;;;;;;;;;;5037614;28;20040;-80
2021/03/07 09:34:01;;;;;;;2.85;1.20;;;;;;;;;;5021627;28;20102;-80
2021/03/07 09:36:27;;;;;;;2.17;1.10;;;;;;;;;;5023558;28;20427;-79
2021/03/07 09:38:54;;;;;;;3.22;1.30;;;;;;;;;;5051620;28;20044;-80
2021/03/07 09:41:43;;;;;;;3.05;1.08;;;;;;;;;;5038063;28;20120;-80
2021/03/07 09:44:15;;;;;;;2.65;1.05;;;;;;;;;;5022172;28;20112;-79
2021/03/07 09:46:45;;;;;;;2.75;1.20;;;;;;;;;;5040440;28;20025;-79
2021/03/07 09:49:13;;;;;;;2.47;1.30;;;;;;;;;;5017893;28;20068;-79
2021/03/07 09:51:39;;;;;;;2.85;1.10;;;;;;;;;;5030140;28;20032;-79
2021/03/07 09:54:08;;;;;;;3.10;1.30;;;;;;;;;;5060420;28;20025;-79
2021/03/07 09:56:34;;;;;;;2.90;1.25;;;;;;;;;;5060071;28;20077;-79
2021/03/07 09:59:08;;;;;;;2.93;1.23;;;;;;;;;;5041176;28;20502;-79
2021/03/07 10:01:44;;;;;;;3.17;1.23;;;;;;;;;;5070476;28;20033;-79
2021/03/07 10:04:24;;;;;;;1.90;1.05;;;;;;;;;;5025142;28;20491;-79
2021/03/07 10:06:50;;;;;;;2.45;1.23;;;;;;;;;;5060236;28;20041;-79
2021/03/07 10:09:15;;;;;;;4.40;1.40;;;;;;;;;;5024165;28;20094;-79
2021/03/07 10:11:41;;;;;;;2.20;1.00;;;;;;;;;;5024270;28;20108;-79
2021/03/07 10:14:06;;;;;;;2.93;1.20;;;;;;;;;;5039585;28;20068;-78
2021/03/07 10:16:34;;;;;;;2.90;1.20;;;;;;;;;;5008632;28;20072;-78
2021/03/07 10:19:07;;;;;;;3.10;1.33;;;;;;;;;;5040046;28;20025;-78
2021/03/07 10:21:32;;;;;;;2.97;1.40;;;;;;;;;;5056797;28;20032;-77
2021/03/07 10:24:09;;;;;;;2.37;1.13;;;;;;;;;;5010382;28;20521;-79
2021/03/07 10:26:35;;;;;;;3.40;1.20;;;;;;;;;;5040025;28;20024;-78
2021/03/07 10:29:00;;;;;;;2.30;1.17;;;;;;;;;;5051991;28;20036;-79
2021/03/07 10:31:26;;;;;;;2.07;1.20;;;;;;;;;;5057223;28;20381;-79
2021/03/07 10:33:54;;;;;;;2.10;1.00;;;;;;;;;;5040986;28;20060;-77
2021/03/07 10:36:20;;;;;;;2.33;1.10;;;;;;;;;;5040966;28;20033;-79
2021/03/07 10:38:49;;;;;;;2.20;1.13;;;;;;;;;;5040290;28;20163;-79
2021/03/07 10:41:31;;;;;;;2.63;1.27;;;;;;;;;;5039862;28;20029;-78
2021/03/07 10:43:57;;;;;;;2.17;1.08;;;;;;;;;;5024027;28;20389;-78
2021/03/07 10:46:30;;;;;;;2.45;1.13;;;;;;;;;;5023031;28;20041;-81
2021/03/07 10:48:56;;;;;;;2.53;1.13;;;;;;;;;;5023825;28;20063;-83
2021/03/07 10:51:21;;;;;;;2.33;1.23;;;;;;;;;;5023461;28;20074;-81
2021/03/07 10:53:47;;;;;;;2.23;0.93;;;;;;;;;;5040196;28;20328;-81
2021/03/07 10:56:12;;;;;;;3.57;1.20;;;;;;;;;;5040686;28;20061;-79
2021/03/07 10:58:38;;;;;;;3.20;1.27;;;;;;;;;;5023404;28;20119;-79
2021/03/07 11:01:03;;;;;;;2.90;1.33;;;;;;;;;;5023284;28;20063;-79
2021/03/07 11:03:28;;;;;;;3.00;1.37;;;;;;;;;;5056498;28;20071;-79
2021/03/07 11:05:54;;;;;;;2.27;1.03;;;;;;;;;;5056662;28;20044;-79
2021/03/07 11:08:19;;;;;;;3.67;1.30;;;;;;;;;;5040008;28;20068;-79
2021/03/07 11:10:44;;;;;;;2.47;1.10;;;;;;;;;;5039743;28;20468;-79
2021/03/07 11:13:10;;;;;;;2.80;1.20;;;;;;;;;;5039726;28;20056;-79
2021/03/07 11:15:35;;;;;;;2.40;1.10;;;;;;;;;;5057645;28;20029;-78
2021/03/07 11:18:00;;;;;;;2.20;1.20;;;;;;;;;;5040284;28;20064;-79
2021/03/07 11:20:26;;;;;;;2.33;1.03;;;;;;;;;;5039139;28;20044;-79
2021/03/07 11:22:51;;;;;;;2.20;1.20;;;;;;;;;;5039112;28;20073;-79
2021/03/07 11:25:16;;;;;;;1.90;1.17;;;;;;;;;;5039963;28;20040;-79
2021/03/07 11:27:42;;;;;;;2.60;1.40;;;;;;;;;;5041357;28;20402;-79
2021/03/07 11:30:08;;;;;;;2.80;1.27;;;;;;;;;;5053380;28;20458;-79
2021/03/07 11:32:33;;;;;;;3.05;1.27;;;;;;;;;;5075309;28;20032;-78
2021/03/07 11:34:59;;;;;;;2.90;1.30;;;;;;;;;;5058914;28;20024;-78
2021/03/07 11:37:24;;;;;;;2.57;1.00;;;;;;;;;;5041940;28;20384;-79
2021/03/07 11:39:49;;;;;;;2.57;1.27;;;;;;;;;;5022017;28;20041;-79
2021/03/07 11:42:15;;;;;;;2.17;1.10;;;;;;;;;;5053695;28;20057;-78
2021/03/07 11:44:40;;;;;;;2.50;1.20;;;;;;;;;;5050521;28;20044;-78
2021/03/07 11:47:06;;;;;;;2.53;1.30;;;;;;;;;;5021639;28;20075;-79
2021/03/07 11:49:32;;;;;;;2.40;1.20;;;;;;;;;;5022553;28;20061;-78
2021/03/07 11:51:57;;;;;;;2.23;1.30;;;;;;;;;;5055690;28;20055;-78
2021/03/07 11:54:22;;;;;;;2.30;1.10;;;;;;;;;;5039624;28;20122;-78
2021/03/07 11:56:47;;;;;;;3.57;1.23;;;;;;;;;;5044183;28;20148;-78
2021/03/07 11:59:13;;;;;;;2.27;1.30;;;;;;;;;;5058137;28;20036;-78
2021/03/07 12:01:38;;;;;;;2.17;1.13;;;;;;;;;;5057979;28;20109;-79
2021/03/07 12:04:04;;;;;;;1.90;1.10;;;;;;;;;;5025192;28;20047;-78
2021/03/07 12:06:29;;;;;;;3.10;1.13;;;;;;;;;;5025194;28;20487;-79
2021/03/07 12:08:54;;;;;;;2.93;1.30;;;;;;;;;;5024662;28;20064;-78
2021/03/07 12:11:20;;;;;;;3.13;1.27;;;;;;;;;;5052944;28;20037;-79
2021/03/07 12:13:46;;;;;;;2.67;1.10;;;;;;;;;;5037819;28;20071;-78
2021/03/07 12:16:11;;;;;;;2.08;1.10;;;;;;;;;;5005187;28;20032;-79
2021/03/07 12:18:38;;;;;;;2.27;1.03;;;;;;;;;;5039073;28;20086;-77
2021/03/07 12:21:04;;;;;;;2.67;1.08;;;;;;;;;;5053820;28;20076;-79
2021/03/07 12:23:29;;;;;;;2.97;1.30;;;;;;;;;;5010588;28;20626;-78
2021/03/07 12:25:55;;;;;;;1.63;1.00;;;;;;;;;;5021209;28;20079;-79
2021/03/07 12:28:20;;;;;;;2.33;1.07;;;;;;;;;;5021334;28;20522;-78
2021/03/07 12:30:45;;;;;;;2.13;1.10;;;;;;;;;;5054698;28;20040;-81
2021/03/07 12:33:11;;;;;;;1.97;1.00;;;;;;;;;;5036797;28;20065;-81
2021/03/07 12:35:36;;;;;;;2.13;1.10;;;;;;;;;;5025656;28;20480;-81
2021/03/07 12:38:01;;;;;;;2.77;1.20;;;;;;;;;;5020649;28;20049;-79
2021/03/07 12:40:27;;;;;;;2.63;1.27;;;;;;;;;;5069018;28;20111;-79
2021/03/07 12:42:52;;;;;;;3.40;1.17;;;;;;;;;;5044299;28;20411;-82
2021/03/07 12:45:17;;;;;;;2.83;1.27;;;;;;;;;;5019678;28;20071;-82
2021/03/07 12:47:43;;;;;;;2.57;1.20;;;;;;;;;;5039949;28;20132;-82
2021/03/07 12:50:09;;;;;;;1.97;1.10;;;;;;;;;;5040151;28;20036;-82
2021/03/07 12:52:34;;;;;;;1.98;1.10;;;;;;;;;;5051547;28;20036;-82
2021/03/07 12:55:00;;;;;;;2.70;1.00;;;;;;;;;;5020680;28;20033;-82
2021/03/07 12:57:25;;;;;;;1.90;1.00;;;;;;;;;;5020661;28;20059;-82
2021/03/07 12:59:50;;;;;;;2.83;1.20;;;;;;;;;;5037026;28;20114;-82
2021/03/07 13:02:16;;;;;;;2.23;1.10;;;;;;;;;;5034476;28;20025;-82
2021/03/07 13:04:41;;;;;;;2.93;1.33;;;;;;;;;;5036420;28;20064;-82
2021/03/07 13:07:06;;;;;;;3.53;1.20;;;;;;;;;;5021865;28;20032;-82
2021/03/07 13:09:32;;;;;;;2.20;1.10;;;;;;;;;;5040314;28;20064;-82
2021/03/07 13:11:57;;;;;;;1.93;1.07;;;;;;;;;;5057348;28;20048;-79
2021/03/07 13:14:22;;;;;;;2.27;1.07;;;;;;;;;;5050813;28;20064;-78
2021/03/07 13:16:48;;;;;;;2.57;1.20;;;;;;;;;;5053093;28;20064;-78
2021/03/07 13:19:13;;;;;;;3.03;1.17;;;;;;;;;;5036845;28;20112;-78
2021/03/07 13:21:38;;;;;;;2.13;1.10;;;;;;;;;;5036758;28;20509;-80
2021/03/07 13:24:04;;;;;;;2.13;1.20;;;;;;;;;;5034885;28;20134;-78
2021/03/07 13:26:30;;;;;;;2.40;1.20;;;;;;;;;;5040891;28;20040;-79
2021/03/07 13:28:55;;;;;;;2.57;1.20;;;;;;;;;;5057984;28;20037;-78
2021/03/07 13:31:20;;;;;;;2.23;1.20;;;;;;;;;;5059638;28;20106;-78
2021/03/07 13:33:46;;;;;;;2.30;1.17;;;;;;;;;;5058641;28;20068;-78
2021/03/07 13:36:11;;;;;;;2.30;1.10;;;;;;;;;;5058938;28;20040;-79
2021/03/07 13:38:36;;;;;;;2.90;1.30;;;;;;;;;;5057080;28;20124;-79
2021/03/07 13:41:02;;;;;;;1.47;1.00;;;;;;;;;;5056558;28;20127;-78
2021/03/07 13:43:27;;;;;;;3.17;1.00;;;;;;;;;;5057253;28;20037;-78
2021/03/07 13:45:53;;;;;;;2.13;1.17;;;;;;;;;;5041909;28;20128;-78
2021/03/07 13:48:18;;;;;;;2.70;1.00;;;;;;;;;;5058326;28;20032;-78
2021/03/07 13:50:44;;;;;;;2.00;1.10;;;;;;;;;;5041229;28;20402;-77
2021/03/07 13:53:09;;;;;;;2.03;1.20;;;;;;;;;;5057660;28;20056;-77
2021/03/07 13:55:34;;;;;;;2.23;1.30;;;;;;;;;;5040545;28;20033;-77
2021/03/07 13:58:00;;;;;;;2.20;1.13;;;;;;;;;;5040782;28;20036;-77
2021/03/07 14:00:25;;;;;;;2.77;1.30;;;;;;;;;;5057188;28;20391;-77
2021/03/07 14:02:51;;;;;;;2.77;1.33;;;;;;;;;;5057472;28;20033;-77
2021/03/07 14:05:16;;;;;;;2.00;1.10;;;;;;;;;;5057480;28;20487;-77
2021/03/07 14:07:42;;;;;;;1.50;0.80;;;;;;;;;;5057111;28;20527;-77
2021/03/07 14:10:09;;;;;;;2.00;1.10;;;;;;;;;;5039520;28;20095;-80
2021/03/07 14:12:35;;;;;;;1.95;1.00;;;;;;;;;;5040264;28;20506;-77
2021/03/07 14:15:00;;;;;;;2.13;1.00;;;;;;;;;;5057102;28;20127;-78
2021/03/07 14:17:26;;;;;;;2.67;1.30;;;;;;;;;;5057034;28;20075;-78
2021/03/07 14:19:51;;;;;;;2.87;1.30;;;;;;;;;;5055886;28;20082;-77
2021/03/07 14:22:16;;;;;;;2.23;1.10;;;;;;;;;;5054591;28;20116;-77
2021/03/07 14:24:41;;;;;;;1.83;1.03;;;;;;;;;;5054172;28;20144;-77
2021/03/07 14:27:07;;;;;;;2.57;1.17;;;;;;;;;;5054196;28;20072;-76
2021/03/07 14:29:32;;;;;;;2.43;1.30;;;;;;;;;;5040507;28;20056;-77
2021/03/07 14:31:57;;;;;;;2.30;1.13;;;;;;;;;;5058157;28;20068;-77
2021/03/07 14:34:23;;;;;;;2.27;1.13;;;;;;;;;;5056252;28;20060;-78
2021/03/07 14:36:48;;;;;;;3.07;1.03;;;;;;;;;;5056999;28;20033;-77
2021/03/07 14:39:14;;;;;;;5.13;1.43;;;;;;;;;;5040011;28;20123;-77
2021/03/07 14:41:39;;;;;;;2.47;1.23;;;;;;;;;;5056136;28;20033;-77
2021/03/07 14:44:05;;;;;;;3.30;1.20;;;;;;;;;;5056286;28;20049;-77
2021/03/07 14:46:30;;;;;;;3.67;1.37;;;;;;;;;;5056132;28;20040;-78